Time;durP1;ratioP1;P1;durP2;ratioP2;P2;SDS_P1;SDS_P2;PMS_P1;PMS_P2;Temp;Humidity;BMP_temperature;BMP_pressure;BME280_temperature;BME280_humidity;BME280_pressure;Samples;Min_cycle;Max_cycle;Signal;HPM_P1;HPM_P2
2021/10/31 00:01:44;;;;;;;;;;;21.00;59.20;;;;;;5051435;28;1408;-70
2021/10/31 00:04:10;;;;;;;;;;;21.00;59.20;;;;;;5052380;28;1902;-70
2021/10/31 00:06:35;;;;;;;;;;;21.00;59.20;;;;;;5051811;28;1087;-70
2021/10/31 00:09:01;;;;;;;;;;;20.90;59.20;;;;;;5052154;28;1161;-70
2021/10/31 00:11:26;;;;;;;;;;;20.90;59.20;;;;;;5051344;28;1305;-70
2021/10/31 00:13:51;;;;;;;;;;;20.90;59.20;;;;;;5067272;28;1283;-71
2021/10/31 00:16:17;;;;;;;;;;;20.90;59.20;;;;;;5052052;28;1261;-70
2021/10/31 00:18:42;;;;;;;;;;;20.90;59.20;;;;;;5051695;28;1273;-71
2021/10/31 00:21:08;;;;;;;;;;;20.90;59.30;;;;;;5062828;28;1288;-69
2021/10/31 00:23:33;;;;;;;;;;;20.90;59.30;;;;;;5084316;28;1955;-68
2021/10/31 00:25:59;;;;;;;;;;;20.90;59.90;;;;;;5038765;28;1272;-68
2021/10/31 00:28:25;;;;;;;;;;;20.90;59.30;;;;;;5032180;28;1274;-69
2021/10/31 00:30:51;;;;;;;;;;;20.90;59.30;;;;;;5063130;28;1401;-70
2021/10/31 00:33:16;;;;;;;;;;;20.90;59.40;;;;;;5032097;28;1337;-70
2021/10/31 00:35:42;;;;;;;;;;;20.90;59.40;;;;;;5031474;28;1345;-69
2021/10/31 00:38:07;;;;;;;;;;;20.90;59.40;;;;;;5031942;28;1259;-68
2021/10/31 00:40:33;;;;;;;;;;;20.90;59.40;;;;;;5032076;28;1295;-68
2021/10/31 00:42:58;;;;;;;;;;;20.90;59.40;;;;;;5031256;28;1902;-68
2021/10/31 00:45:24;;;;;;;;;;;20.90;59.40;;;;;;5063351;28;1414;-69
2021/10/31 00:47:50;;;;;;;;;;;20.80;59.30;;;;;;5032018;28;1346;-68
2021/10/31 00:50:17;;;;;;;;;;;20.90;59.40;;;;;;5031500;28;1250;-69
2021/10/31 00:52:42;;;;;;;;;;;20.90;59.40;;;;;;5031150;28;1336;-68
2021/10/31 00:55:08;;;;;;;;;;;20.80;59.40;;;;;;5031542;28;1301;-68
2021/10/31 00:57:33;;;;;;;;;;;20.80;59.40;;;;;;5033220;28;1318;-68
2021/10/31 00:59:59;;;;;;;;;;;20.80;59.40;;;;;;5045554;28;1331;-69
2021/10/31 01:02:26;;;;;;;;;;;20.80;59.40;;;;;;5045769;28;1909;-69
2021/10/31 01:04:54;;;;;;;;;;;20.90;59.50;;;;;;5057295;28;1367;-70
2021/10/31 01:07:22;;;;;;;;;;;20.80;59.50;;;;;;5056511;28;1409;-68
2021/10/31 01:10:17;;;;;;;;;;;20.80;59.50;;;;;;5046977;28;1292;-68
2021/10/31 01:12:42;;;;;;;;;;;20.80;59.50;;;;;;5033719;28;1344;-68
2021/10/31 01:15:13;;;;;;;;;;;20.80;59.50;;;;;;5049644;28;1331;-67
2021/10/31 01:17:47;;;;;;;;;;;20.80;59.50;;;;;;5048552;28;1303;-68
2021/10/31 01:20:15;;;;;;;;;;;20.80;59.60;;;;;;5075319;28;1338;-69
2021/10/31 01:22:41;;;;;;;;;;;20.80;59.60;;;;;;5045994;28;1973;-68
2021/10/31 01:25:25;;;;;;;;;;;20.80;59.60;;;;;;5073829;28;1319;-70
2021/10/31 01:27:51;;;;;;;;;;;20.80;59.60;;;;;;5045454;28;1347;-68
2021/10/31 01:30:31;;;;;;;;;;;20.80;59.60;;;;;;5045311;28;1568;-70
2021/10/31 01:33:01;;;;;;;;;;;20.80;59.60;;;;;;5053594;28;1301;-69
2021/10/31 01:35:27;;;;;;;;;;;20.80;59.70;;;;;;5043474;28;1281;-67
2021/10/31 01:38:03;;;;;;;;;;;20.80;59.70;;;;;;5046613;28;1289;-69
2021/10/31 01:40:31;;;;;;;;;;;20.80;59.60;;;;;;5042786;28;1364;-70
2021/10/31 01:43:02;;;;;;;;;;;20.80;59.70;;;;;;5054414;28;1897;-69
2021/10/31 01:45:38;;;;;;;;;;;20.80;59.70;;;;;;5044580;28;1296;-69
2021/10/31 01:48:25;;;;;;;;;;;20.80;59.70;;;;;;5073803;28;1441;-69
2021/10/31 01:50:53;;;;;;;;;;;20.80;59.70;;;;;;5046411;28;1314;-70
2021/10/31 01:53:23;;;;;;;;;;;20.70;59.70;;;;;;5052684;28;1266;-67
2021/10/31 01:55:50;;;;;;;;;;;20.80;59.70;;;;;;5034462;28;1391;-68
2021/10/31 01:58:16;;;;;;;;;;;20.70;59.60;;;;;;5034936;28;1288;-67
2021/10/31 02:00:41;;;;;;;;;;;20.70;59.70;;;;;;5034607;28;1789;-68
2021/10/31 02:03:07;;;;;;;;;;;20.70;59.70;;;;;;5051830;28;2013;-70
2021/10/31 02:05:33;;;;;;;;;;;20.70;59.70;;;;;;5052849;28;1354;-71
2021/10/31 02:08:02;;;;;;;;;;;20.70;59.70;;;;;;5034442;28;1363;-70
2021/10/31 02:10:28;;;;;;;;;;;20.70;59.70;;;;;;5036125;28;1307;-68
2021/10/31 02:12:53;;;;;;;;;;;20.70;59.70;;;;;;5036108;28;1391;-69
2021/10/31 02:15:19;;;;;;;;;;;20.70;59.70;;;;;;5067102;28;1418;-69
2021/10/31 02:17:52;;;;;;;;;;;20.70;59.70;;;;;;5035458;28;1408;-69
2021/10/31 02:20:18;;;;;;;;;;;20.70;59.70;;;;;;5035703;28;1304;-69
2021/10/31 02:23:03;;;;;;;;;;;20.70;59.80;;;;;;5025404;28;1898;-69
2021/10/31 02:25:28;;;;;;;;;;;20.70;59.80;;;;;;5050832;28;1305;-69
2021/10/31 02:27:54;;;;;;;;;;;20.70;59.80;;;;;;5040696;28;1367;-71
2021/10/31 02:30:19;;;;;;;;;;;20.70;59.80;;;;;;5044209;28;1346;-71
2021/10/31 02:32:45;;;;;;;;;;;20.70;59.80;;;;;;5055728;28;1395;-70
2021/10/31 02:35:11;;;;;;;;;;;20.70;59.80;;;;;;5054072;28;1351;-70
2021/10/31 02:37:37;;;;;;;;;;;20.70;59.80;;;;;;5053365;28;1301;-69
2021/10/31 02:40:03;;;;;;;;;;;20.70;59.80;;;;;;5052806;28;1351;-68
2021/10/31 02:42:29;;;;;;;;;;;20.70;59.80;;;;;;5024784;28;1894;-69
2021/10/31 02:44:54;;;;;;;;;;;20.70;59.80;;;;;;5051981;28;1324;-68
2021/10/31 02:47:39;;;;;;;;;;;20.70;59.90;;;;;;5052330;28;1394;-68
2021/10/31 02:50:05;;;;;;;;;;;20.70;59.80;;;;;;5049713;28;1408;-69
2021/10/31 02:52:49;;;;;;;;;;;20.70;59.90;;;;;;5057302;28;1707;-68
2021/10/31 02:55:22;;;;;;;;;;;20.70;59.90;;;;;;5048657;28;1393;-68
2021/10/31 02:57:55;;;;;;;;;;;20.70;59.90;;;;;;5046289;28;1466;-68
2021/10/31 03:00:20;;;;;;;;;;;20.70;59.90;;;;;;5052629;28;1479;-66
2021/10/31 03:02:46;;;;;;;;;;;20.70;59.90;;;;;;5046457;28;1983;-69
2021/10/31 03:05:11;;;;;;;;;;;20.60;59.80;;;;;;5056467;28;1352;-69
2021/10/31 03:07:37;;;;;;;;;;;20.70;59.90;;;;;;5048519;28;1288;-69
2021/10/31 03:10:02;;;;;;;;;;;20.70;59.90;;;;;;5046411;28;1398;-68
2021/10/31 03:12:28;;;;;;;;;;;20.70;59.90;;;;;;5046354;28;1481;-68
2021/10/31 03:14:53;;;;;;;;;;;20.60;59.90;;;;;;5051266;28;1375;-71
2021/10/31 03:17:18;;;;;;;;;;;20.70;59.90;;;;;;5047317;28;1363;-69
2021/10/31 03:19:45;;;;;;;;;;;20.70;59.90;;;;;;5046372;28;1293;-68
2021/10/31 03:22:10;;;;;;;;;;;20.60;59.90;;;;;;5067654;28;1967;-68
2021/10/31 03:24:35;;;;;;;;;;;20.70;60.00;;;;;;5048451;28;1381;-69
2021/10/31 03:27:01;;;;;;;;;;;20.60;59.90;;;;;;5064095;28;1371;-70
2021/10/31 03:29:27;;;;;;;;;;;20.70;60.00;;;;;;5056522;28;1467;-70
2021/10/31 03:31:52;;;;;;;;;;;20.70;60.00;;;;;;5047213;28;1292;-67
2021/10/31 03:34:18;;;;;;;;;;;20.60;59.90;;;;;;5048155;28;1308;-69
2021/10/31 03:36:43;;;;;;;;;;;20.60;59.90;;;;;;5064821;28;1454;-67
2021/10/31 03:39:08;;;;;;;;;;;20.60;60.00;;;;;;5048337;28;1390;-68
2021/10/31 03:41:34;;;;;;;;;;;20.60;59.90;;;;;;5057071;28;1522;-68
2021/10/31 03:43:59;;;;;;;;;;;20.60;59.90;;;;;;5049234;28;1921;-67
2021/10/31 03:46:25;;;;;;;;;;;20.60;60.00;;;;;;5046591;28;1308;-67
2021/10/31 03:48:50;;;;;;;;;;;20.70;60.10;;;;;;5048482;28;1400;-68
2021/10/31 03:51:16;;;;;;;;;;;20.60;60.00;;;;;;5048099;28;1359;-69
2021/10/31 03:53:41;;;;;;;;;;;20.60;60.00;;;;;;5051175;28;1364;-68
2021/10/31 03:56:07;;;;;;;;;;;20.60;60.00;;;;;;5050616;28;1327;-68
2021/10/31 03:58:32;;;;;;;;;;;20.60;60.00;;;;;;5050775;28;1374;-70
2021/10/31 04:00:59;;;;;;;;;;;20.60;60.00;;;;;;5050040;28;1358;-67
2021/10/31 04:03:25;;;;;;;;;;;20.60;60.00;;;;;;5040900;28;1898;-68
2021/10/31 04:05:50;;;;;;;;;;;20.60;60.10;;;;;;5050493;28;1406;-65
2021/10/31 04:08:16;;;;;;;;;;;20.60;60.10;;;;;;5050603;28;1420;-68
2021/10/31 04:10:41;;;;;;;;;;;20.60;60.80;;;;;;5048689;28;1387;-67
2021/10/31 04:13:07;;;;;;;;;;;20.60;60.10;;;;;;5049688;28;1288;-68
2021/10/31 04:15:32;;;;;;;;;;;20.60;60.10;;;;;;5050571;28;1339;-68
2021/10/31 04:17:57;;;;;;;;;;;20.60;60.10;;;;;;5050409;28;1360;-68
2021/10/31 04:20:23;;;;;;;;;;;20.60;60.10;;;;;;5034120;28;1300;-68
2021/10/31 04:22:48;;;;;;;;;;;20.60;60.10;;;;;;5049839;28;1906;-68
2021/10/31 04:25:14;;;;;;;;;;;20.60;60.10;;;;;;5050362;28;1395;-68
2021/10/31 04:27:39;;;;;;;;;;;20.60;60.10;;;;;;5015409;28;1637;-69
2021/10/31 04:30:08;;;;;;;;;;;20.60;60.10;;;;;;5050622;28;1578;-69
2021/10/31 04:32:33;;;;;;;;;;;20.60;60.10;;;;;;5049738;28;1546;-68
2021/10/31 04:34:59;;;;;;;;;;;20.60;60.10;;;;;;5050538;28;1403;-69
2021/10/31 04:37:25;;;;;;;;;;;20.60;60.10;;;;;;5032559;28;1418;-69
2021/10/31 04:39:51;;;;;;;;;;;20.60;60.10;;;;;;5050013;28;1123;-68
2021/10/31 04:42:16;;;;;;;;;;;20.60;60.10;;;;;;5049264;28;1993;-68
2021/10/31 04:44:41;;;;;;;;;;;20.60;60.10;;;;;;5050750;28;1269;-67
2021/10/31 04:47:08;;;;;;;;;;;20.60;60.00;;;;;;5050257;28;1348;-68
2021/10/31 04:49:33;;;;;;;;;;;20.70;60.00;;;;;;5059950;28;1354;-67
2021/10/31 04:51:59;;;;;;;;;;;20.70;60.00;;;;;;5038204;28;1328;-69
2021/10/31 04:54:24;;;;;;;;;;;20.70;59.90;;;;;;5047656;28;1386;-68
2021/10/31 04:56:50;;;;;;;;;;;20.70;59.80;;;;;;5047487;28;1357;-68
2021/10/31 04:59:15;;;;;;;;;;;20.70;59.70;;;;;;5073562;28;1418;-68
2021/10/31 05:01:41;;;;;;;;;;;20.70;59.70;;;;;;5050494;28;1352;-69
2021/10/31 05:04:06;;;;;;;;;;;20.80;59.70;;;;;;5039206;28;1973;-69
2021/10/31 05:06:32;;;;;;;;;;;20.80;59.60;;;;;;5084784;28;1054;-70
2021/10/31 05:08:57;;;;;;;;;;;20.80;59.50;;;;;;5063912;28;1201;-69
2021/10/31 05:11:23;;;;;;;;;;;20.90;59.50;;;;;;5042861;28;1467;-69
2021/10/31 05:13:48;;;;;;;;;;;20.90;59.40;;;;;;5052491;28;1249;-68
2021/10/31 05:16:14;;;;;;;;;;;20.90;59.40;;;;;;5039410;28;1678;-71
2021/10/31 05:18:40;;;;;;;;;;;20.90;59.30;;;;;;5046765;28;1296;-71
2021/10/31 05:21:05;;;;;;;;;;;20.90;59.30;;;;;;5048550;28;1883;-71
2021/10/31 05:23:31;;;;;;;;;;;20.90;59.20;;;;;;5048199;28;2128;-71
2021/10/31 05:25:56;;;;;;;;;;;20.90;59.20;;;;;;5050505;28;1326;-69
2021/10/31 05:28:22;;;;;;;;;;;21.00;59.20;;;;;;5049287;28;1281;-68
2021/10/31 05:30:47;;;;;;;;;;;20.90;59.20;;;;;;5047701;28;1283;-68
2021/10/31 05:33:12;;;;;;;;;;;21.00;59.20;;;;;;5048583;28;1289;-68
2021/10/31 05:35:38;;;;;;;;;;;20.90;59.20;;;;;;5052226;28;1351;-68
2021/10/31 05:38:05;;;;;;;;;;;21.00;59.20;;;;;;5047014;28;1304;-68
2021/10/31 05:40:30;;;;;;;;;;;21.00;59.20;;;;;;5051622;28;1323;-69
2021/10/31 05:42:56;;;;;;;;;;;21.00;59.20;;;;;;5048775;28;1894;-68
2021/10/31 05:45:21;;;;;;;;;;;21.00;59.20;;;;;;5048485;28;1327;-69
2021/10/31 05:47:46;;;;;;;;;;;21.00;59.10;;;;;;5040491;28;1465;-68
2021/10/31 05:50:13;;;;;;;;;;;21.00;59.10;;;;;;5050296;28;1339;-69
2021/10/31 05:52:38;;;;;;;;;;;21.00;59.10;;;;;;5059650;28;1441;-69
2021/10/31 05:55:04;;;;;;;;;;;21.00;59.10;;;;;;5049242;28;1327;-68
2021/10/31 05:57:30;;;;;;;;;;;21.00;59.10;;;;;;5041461;28;1299;-69
2021/10/31 05:59:55;;;;;;;;;;;21.00;59.00;;;;;;5048912;28;1248;-69
2021/10/31 06:02:21;;;;;;;;;;;21.00;59.00;;;;;;5047237;28;1906;-69
2021/10/31 06:04:47;;;;;;;;;;;21.10;59.00;;;;;;5050024;28;1401;-68
2021/10/31 06:07:12;;;;;;;;;;;21.10;59.10;;;;;;5047506;28;1410;-68
2021/10/31 06:09:38;;;;;;;;;;;21.10;59.00;;;;;;5046532;28;1328;-68
2021/10/31 06:12:04;;;;;;;;;;;21.10;58.90;;;;;;5048837;28;1396;-69
2021/10/31 06:14:29;;;;;;;;;;;21.10;58.90;;;;;;5048695;28;1351;-69
2021/10/31 06:16:55;;;;;;;;;;;21.10;58.90;;;;;;5059645;28;1872;-69
2021/10/31 06:19:20;;;;;;;;;;;21.10;58.90;;;;;;5052462;28;1299;-68
2021/10/31 06:21:46;;;;;;;;;;;21.10;58.90;;;;;;5043335;28;1401;-68
2021/10/31 06:24:11;;;;;;;;;;;21.10;58.90;;;;;;5050678;28;1914;-70
2021/10/31 06:26:37;;;;;;;;;;;21.10;58.80;;;;;;5047971;28;1660;-70
2021/10/31 06:29:02;;;;;;;;;;;21.10;58.80;;;;;;5048933;28;1386;-69
2021/10/31 06:31:27;;;;;;;;;;;21.10;58.80;;;;;;5044368;28;1393;-70
2021/10/31 06:33:53;;;;;;;;;;;21.10;58.80;;;;;;5048435;28;1338;-70
2021/10/31 06:36:18;;;;;;;;;;;21.10;58.80;;;;;;5047487;28;1640;-69
2021/10/31 06:38:44;;;;;;;;;;;21.10;58.80;;;;;;5048621;28;1236;-69
2021/10/31 06:41:09;;;;;;;;;;;21.10;58.80;;;;;;5045302;28;1642;-70
2021/10/31 06:43:35;;;;;;;;;;;21.20;58.80;;;;;;5051391;28;1962;-68
2021/10/31 06:46:01;;;;;;;;;;;21.20;58.80;;;;;;5046461;28;1362;-68
2021/10/31 06:48:26;;;;;;;;;;;21.10;58.70;;;;;;5052784;28;1400;-70
2021/10/31 06:50:53;;;;;;;;;;;21.20;58.80;;;;;;5052354;28;1718;-71
2021/10/31 06:53:19;;;;;;;;;;;21.20;58.80;;;;;;5053429;28;1670;-69
2021/10/31 06:55:45;;;;;;;;;;;21.20;58.70;;;;;;5053204;28;1597;-70
2021/10/31 06:58:10;;;;;;;;;;;21.20;58.70;;;;;;5041316;28;1465;-69
2021/10/31 07:00:36;;;;;;;;;;;21.20;58.70;;;;;;5051575;28;1260;-70
2021/10/31 07:03:01;;;;;;;;;;;21.20;58.70;;;;;;5052748;28;1973;-69
2021/10/31 07:05:27;;;;;;;;;;;21.20;58.70;;;;;;5053193;28;1462;-70
2021/10/31 07:07:52;;;;;;;;;;;21.20;58.70;;;;;;5052797;28;1659;-68
2021/10/31 07:10:18;;;;;;;;;;;21.20;58.70;;;;;;5052907;28;1564;-68
2021/10/31 07:12:43;;;;;;;;;;;21.20;58.70;;;;;;5053418;28;1209;-69
2021/10/31 07:15:09;;;;;;;;;;;21.20;58.70;;;;;;5054096;28;1227;-69
2021/10/31 07:17:34;;;;;;;;;;;21.20;58.70;;;;;;5053693;28;1644;-69
2021/10/31 07:20:00;;;;;;;;;;;21.20;58.70;;;;;;5052014;28;1339;-69
2021/10/31 07:22:25;;;;;;;;;;;21.20;58.70;;;;;;5051874;28;1949;-70
2021/10/31 07:24:52;;;;;;;;;;;21.20;58.70;;;;;;5052070;28;1067;-69
2021/10/31 07:27:18;;;;;;;;;;;21.20;58.70;;;;;;5085030;28;1483;-69
2021/10/31 07:29:43;;;;;;;;;;;21.20;58.70;;;;;;5050045;28;1595;-69
2021/10/31 07:32:09;;;;;;;;;;;21.20;58.70;;;;;;5049798;28;1276;-69
2021/10/31 07:34:34;;;;;;;;;;;21.20;58.60;;;;;;5068468;28;1798;-69
2021/10/31 07:37:00;;;;;;;;;;;21.20;58.70;;;;;;5050914;28;1266;-70
2021/10/31 07:39:27;;;;;;;;;;;21.20;58.70;;;;;;5051925;28;1270;-70
2021/10/31 07:41:52;;;;;;;;;;;21.20;58.70;;;;;;5083441;28;1297;-71
2021/10/31 07:44:17;;;;;;;;;;;21.20;58.70;;;;;;5045520;28;1902;-67
2021/10/31 07:46:43;;;;;;;;;;;21.20;58.60;;;;;;5046213;28;1414;-67
2021/10/31 07:49:10;;;;;;;;;;;21.20;58.70;;;;;;5046141;28;1057;-69
2021/10/31 07:51:35;;;;;;;;;;;21.20;58.60;;;;;;5048123;28;1422;-69
2021/10/31 07:54:01;;;;;;;;;;;21.20;57.90;;;;;;5048749;28;1267;-69
2021/10/31 07:56:30;;;;;;;;;;;21.20;57.20;;;;;;5058510;28;1424;-69
2021/10/31 07:58:55;;;;;;;;;;;21.20;56.70;;;;;;5045850;28;1397;-69
2021/10/31 08:01:24;;;;;;;;;;;21.20;56.20;;;;;;5050439;28;1564;-69
2021/10/31 08:03:50;;;;;;;;;;;21.20;55.90;;;;;;5055397;28;1910;-68
2021/10/31 08:06:16;;;;;;;;;;;21.20;55.70;;;;;;5045272;28;1375;-68
2021/10/31 08:08:41;;;;;;;;;;;21.20;55.50;;;;;;5051115;28;1184;-69
2021/10/31 08:11:06;;;;;;;;;;;21.20;55.30;;;;;;5047639;28;1310;-70
2021/10/31 08:13:32;;;;;;;;;;;21.20;55.20;;;;;;5048861;28;1349;-70
2021/10/31 08:15:58;;;;;;;;;;;21.20;55.00;;;;;;5049651;28;1185;-69
2021/10/31 08:18:23;;;;;;;;;;;21.10;54.90;;;;;;5048476;28;1392;-69
2021/10/31 08:20:48;;;;;;;;;;;21.10;54.80;;;;;;5033174;28;1372;-69
2021/10/31 08:23:15;;;;;;;;;;;21.10;54.70;;;;;;5047619;28;1903;-69
2021/10/31 08:25:42;;;;;;;;;;;21.10;54.60;;;;;;5049166;28;1314;-69
2021/10/31 08:28:09;;;;;;;;;;;21.10;54.60;;;;;;5044401;28;1281;-68
2021/10/31 08:30:35;;;;;;;;;;;21.10;54.50;;;;;;5049021;28;1377;-68
2021/10/31 08:33:24;;;;;;;;;;;21.00;54.30;;;;;;5047980;28;1588;-69
2021/10/31 08:35:46;;;;;;;;;;;21.00;54.30;;;;;;5048895;28;1541;-70
2021/10/31 08:38:12;;;;;;;;;;;21.00;54.20;;;;;;5043528;28;1191;-72
2021/10/31 08:40:37;;;;;;;;;;;21.00;54.20;;;;;;5048217;28;1549;-71
2021/10/31 08:43:03;;;;;;;;;;;21.00;54.10;;;;;;5083789;28;1975;-71
2021/10/31 08:45:28;;;;;;;;;;;21.00;54.10;;;;;;5051620;28;1593;-72
2021/10/31 08:47:54;;;;;;;;;;;21.00;54.10;;;;;;5051444;28;1684;-71
2021/10/31 08:50:19;;;;;;;;;;;21.00;54.10;;;;;;5052044;28;1478;-72
2021/10/31 08:52:44;;;;;;;;;;;20.90;53.90;;;;;;5051079;28;1632;-71
2021/10/31 08:55:10;;;;;;;;;;;20.90;54.00;;;;;;5051558;28;1365;-72
2021/10/31 08:57:35;;;;;;;;;;;20.90;54.10;;;;;;5084241;28;1619;-72
2021/10/31 09:00:01;;;;;;;;;;;20.90;54.10;;;;;;5056191;28;1753;-71
2021/10/31 09:02:27;;;;;;;;;;;20.90;54.10;;;;;;5055192;28;1905;-71
2021/10/31 09:04:52;;;;;;;;;;;20.90;54.20;;;;;;5088270;28;1477;-71
2021/10/31 09:07:18;;;;;;;;;;;20.90;54.20;;;;;;5056558;28;1617;-71
2021/10/31 09:09:43;;;;;;;;;;;20.90;54.30;;;;;;5042112;28;1475;-71
2021/10/31 09:12:09;;;;;;;;;;;20.80;54.30;;;;;;5055123;28;1657;-72
2021/10/31 09:14:35;;;;;;;;;;;20.80;54.30;;;;;;5055775;28;862;-72
2021/10/31 09:17:01;;;;;;;;;;;20.80;54.30;;;;;;5058218;28;1551;-71
2021/10/31 09:19:26;;;;;;;;;;;20.80;54.40;;;;;;5055246;28;1604;-72
2021/10/31 09:21:52;;;;;;;;;;;20.80;54.40;;;;;;5065464;28;1527;-72
2021/10/31 09:24:17;;;;;;;;;;;20.80;54.50;;;;;;5042239;28;1981;-71
2021/10/31 09:26:42;;;;;;;;;;;20.80;54.60;;;;;;5049355;28;1375;-72
2021/10/31 09:29:08;;;;;;;;;;;20.80;54.60;;;;;;5048739;28;1666;-72
2021/10/31 09:31:33;;;;;;;;;;;20.80;54.60;;;;;;5054603;28;1367;-71
2021/10/31 09:33:59;;;;;;;;;;;20.80;54.70;;;;;;5054940;28;1350;-72
2021/10/31 09:36:25;;;;;;;;;;;20.70;54.50;;;;;;5055484;28;1357;-71
2021/10/31 09:38:53;;;;;;;;;;;20.70;54.60;;;;;;5087549;28;1780;-70
2021/10/31 09:41:18;;;;;;;;;;;20.80;54.50;;;;;;5054313;28;1738;-69
2021/10/31 09:43:53;;;;;;;;;;;20.70;54.50;;;;;;5055227;28;1906;-69
2021/10/31 09:46:18;;;;;;;;;;;20.70;54.50;;;;;;5048091;28;1337;-70
2021/10/31 09:48:44;;;;;;;;;;;20.70;54.60;;;;;;5035787;28;1682;-70
2021/10/31 09:51:09;;;;;;;;;;;20.70;54.70;;;;;;5034465;28;1553;-71
2021/10/31 09:53:35;;;;;;;;;;;20.70;54.70;;;;;;5035092;28;1584;-71
2021/10/31 09:56:00;;;;;;;;;;;20.70;54.70;;;;;;5035423;28;1588;-71
2021/10/31 09:58:38;;;;;;;;;;;20.70;54.90;;;;;;5035533;28;1555;-70
2021/10/31 10:01:14;;;;;;;;;;;20.70;55.60;;;;;;5063541;28;1711;-70
2021/10/31 10:03:39;;;;;;;;;;;20.70;54.90;;;;;;5034630;28;1944;-70
2021/10/31 10:06:06;;;;;;;;;;;20.70;55.00;;;;;;5035228;28;1736;-71
2021/10/31 10:08:31;;;;;;;;;;;20.70;55.10;;;;;;5065476;28;1664;-71
2021/10/31 10:10:57;;;;;;;;;;;20.70;55.30;;;;;;5066282;28;1359;-71
2021/10/31 10:13:26;;;;;;;;;;;20.70;55.10;;;;;;5034623;28;1267;-71
2021/10/31 10:15:53;;;;;;;;;;;20.60;55.00;;;;;;5077836;28;1441;-71
2021/10/31 10:18:29;;;;;;;;;;;20.70;55.10;;;;;;5053898;28;1728;-70
2021/10/31 10:20:54;;;;;;;;;;;20.70;55.20;;;;;;5063026;28;1794;-70
2021/10/31 10:23:20;;;;;;;;;;;20.70;55.30;;;;;;5056007;28;1949;-70
2021/10/31 10:25:45;;;;;;;;;;;20.70;55.20;;;;;;5054768;28;1172;-70
2021/10/31 10:28:23;;;;;;;;;;;20.60;55.20;;;;;;5055019;28;1614;-72
2021/10/31 10:30:49;;;;;;;;;;;20.60;55.20;;;;;;5085689;28;1618;-70
2021/10/31 10:33:21;;;;;;;;;;;20.60;55.30;;;;;;5054214;28;1561;-70
2021/10/31 10:35:47;;;;;;;;;;;20.60;55.20;;;;;;5041110;28;1161;-69
2021/10/31 10:38:16;;;;;;;;;;;20.60;55.30;;;;;;5054514;28;1642;-70
2021/10/31 10:40:42;;;;;;;;;;;20.60;55.40;;;;;;5069193;28;1571;-70
2021/10/31 10:43:07;;;;;;;;;;;20.60;55.40;;;;;;5085826;28;1965;-70
2021/10/31 10:45:33;;;;;;;;;;;20.60;55.50;;;;;;5054423;28;1559;-71
2021/10/31 10:48:01;;;;;;;;;;;20.60;55.50;;;;;;5054498;28;817;-70
2021/10/31 10:50:37;;;;;;;;;;;20.60;55.60;;;;;;5053649;28;1744;-70
2021/10/31 10:53:03;;;;;;;;;;;20.60;55.60;;;;;;5085402;28;1405;-70
2021/10/31 10:55:29;;;;;;;;;;;20.60;55.60;;;;;;5054135;28;1522;-70
2021/10/31 10:57:58;;;;;;;;;;;20.60;55.70;;;;;;5086515;28;1356;-70
2021/10/31 11:00:34;;;;;;;;;;;20.60;55.70;;;;;;5085986;28;1671;-70
2021/10/31 11:03:00;;;;;;;;;;;20.50;55.70;;;;;;5093020;23;2478;-66
2021/10/31 11:05:30;;;;;;;;;;;20.50;55.70;;;;;;5073927;28;1167;-67
2021/10/31 11:07:55;;;;;;;;;;;20.50;55.80;;;;;;5073046;28;1501;-66
2021/10/31 11:10:22;;;;;;;;;;;20.50;55.80;;;;;;5074053;28;1698;-66
2021/10/31 11:12:48;;;;;;;;;;;20.50;55.80;;;;;;5073863;28;1402;-67
2021/10/31 11:15:20;;;;;;;;;;;20.50;55.90;;;;;;5073560;28;1743;-66
2021/10/31 11:17:47;;;;;;;;;;;20.50;55.90;;;;;;5061381;28;1209;-67
2021/10/31 11:20:14;;;;;;;;;;;20.50;56.00;;;;;;5066760;28;1754;-67
2021/10/31 11:22:40;;;;;;;;;;;20.50;56.00;;;;;;5079249;28;1963;-67
2021/10/31 11:25:06;;;;;;;;;;;20.50;56.00;;;;;;5073842;28;1742;-67
2021/10/31 11:27:31;;;;;;;;;;;20.50;56.00;;;;;;5055957;28;1371;-67
2021/10/31 11:29:57;;;;;;;;;;;20.50;56.00;;;;;;5053385;28;1215;-67
2021/10/31 11:32:23;;;;;;;;;;;20.50;56.10;;;;;;5053541;28;1929;-67
2021/10/31 11:34:52;;;;;;;;;;;20.50;56.10;;;;;;5053553;28;1367;-68
2021/10/31 11:37:18;;;;;;;;;;;20.50;56.20;;;;;;5060239;28;1433;-67
2021/10/31 11:39:44;;;;;;;;;;;20.50;56.10;;;;;;5070910;28;1352;-67
2021/10/31 11:42:10;;;;;;;;;;;20.50;56.20;;;;;;5069982;28;1253;-67
2021/10/31 11:44:54;;;;;;;;;;;20.50;56.20;;;;;;5062271;28;1963;-67
2021/10/31 11:47:20;;;;;;;;;;;20.50;56.20;;;;;;5063578;28;1184;-67
2021/10/31 11:49:58;;;;;;;;;;;20.50;56.60;;;;;;5046036;28;1191;-67
2021/10/31 11:52:42;;;;;;;;;;;20.50;56.70;;;;;;5072396;28;1319;-67
2021/10/31 11:55:29;;;;;;;;;;;20.50;56.80;;;;;;5058738;28;1257;-68
2021/10/31 11:57:59;;;;;;;;;;;20.50;56.80;;;;;;5062621;28;1235;-68
2021/10/31 12:00:25;;;;;;;;;;;20.50;56.80;;;;;;5072127;28;1358;-67
2021/10/31 12:02:56;;;;;;;;;;;20.50;56.90;;;;;;5054433;28;1902;-67
2021/10/31 12:05:38;;;;;;;;;;;20.50;56.90;;;;;;5071842;28;1427;-67
2021/10/31 12:08:04;;;;;;;;;;;20.50;57.00;;;;;;5070067;28;1230;-67
2021/10/31 12:10:33;;;;;;;;;;;20.40;57.00;;;;;;5058997;28;1438;-67
2021/10/31 12:13:14;;;;;;;;;;;20.40;57.10;;;;;;5052717;28;1355;-67
2021/10/31 12:15:59;;;;;;;;;;;20.40;57.10;;;;;;5060734;28;1294;-67
2021/10/31 12:18:40;;;;;;;;;;;20.50;57.20;;;;;;5054326;28;1326;-67
2021/10/31 12:21:16;;;;;;;;;;;20.50;57.30;;;;;;5074165;28;1256;-68
2021/10/31 12:24:00;;;;;;;;;;;20.50;57.30;;;;;;5052790;28;1961;-67
2021/10/31 12:26:26;;;;;;;;;;;20.50;57.30;;;;;;5052758;28;1542;-67
2021/10/31 12:29:06;;;;;;;;;;;20.50;57.40;;;;;;5051473;28;1414;-67
2021/10/31 12:31:32;;;;;;;;;;;20.40;57.30;;;;;;5051591;28;1524;-67
2021/10/31 12:34:10;;;;;;;;;;;20.40;57.40;;;;;;5052669;28;1443;-67
2021/10/31 12:36:35;;;;;;;;;;;20.40;57.50;;;;;;5060508;28;1318;-67
2021/10/31 12:39:01;;;;;;;;;;;20.40;57.50;;;;;;5072757;28;1082;-67
2021/10/31 12:41:29;;;;;;;;;;;20.40;57.50;;;;;;5071956;28;1338;-67
2021/10/31 12:44:10;;;;;;;;;;;20.40;57.60;;;;;;5072499;28;1898;-67
2021/10/31 12:46:36;;;;;;;;;;;20.40;57.60;;;;;;5072588;28;1323;-67
2021/10/31 12:49:03;;;;;;;;;;;20.40;57.60;;;;;;5072772;28;1337;-67
2021/10/31 12:51:36;;;;;;;;;;;20.40;57.60;;;;;;5072211;28;1958;-67
2021/10/31 12:54:02;;;;;;;;;;;20.40;57.70;;;;;;5072818;28;1313;-67
2021/10/31 12:56:31;;;;;;;;;;;20.40;57.70;;;;;;5071203;28;1238;-67
2021/10/31 12:59:03;;;;;;;;;;;20.40;57.70;;;;;;5072661;28;1321;-68
2021/10/31 13:01:28;;;;;;;;;;;20.40;57.80;;;;;;5077055;28;1352;-67
2021/10/31 13:04:00;;;;;;;;;;;20.40;57.80;;;;;;5093273;28;1907;-67
2021/10/31 13:06:25;;;;;;;;;;;20.40;57.80;;;;;;5093318;28;1300;-67
2021/10/31 13:08:57;;;;;;;;;;;20.40;57.90;;;;;;5092885;28;1235;-67
2021/10/31 13:11:30;;;;;;;;;;;20.40;57.90;;;;;;5092375;28;1281;-67
2021/10/31 13:13:56;;;;;;;;;;;20.40;57.90;;;;;;5092621;28;1277;-67
2021/10/31 13:16:21;;;;;;;;;;;20.40;57.90;;;;;;5091063;28;1324;-67
2021/10/31 13:18:47;;;;;;;;;;;20.40;57.90;;;;;;5072207;28;1292;-67
2021/10/31 13:21:13;;;;;;;;;;;20.40;58.00;;;;;;5084164;28;1816;-67
2021/10/31 13:23:42;;;;;;;;;;;20.40;58.00;;;;;;5065064;28;1890;-67
2021/10/31 13:26:08;;;;;;;;;;;20.40;58.00;;;;;;5088974;28;1383;-67
2021/10/31 13:28:38;;;;;;;;;;;20.40;58.00;;;;;;5077352;28;2032;-67
2021/10/31 13:31:10;;;;;;;;;;;20.40;58.10;;;;;;5090312;28;1302;-67
2021/10/31 13:33:36;;;;;;;;;;;20.40;58.10;;;;;;5061947;28;1150;-67
2021/10/31 13:36:09;;;;;;;;;;;20.40;58.10;;;;;;5072222;28;1293;-67
2021/10/31 13:38:45;;;;;;;;;;;20.40;58.10;;;;;;5054236;28;1277;-67
2021/10/31 13:41:10;;;;;;;;;;;20.40;58.80;;;;;;5071659;28;1339;-68
2021/10/31 13:43:36;;;;;;;;;;;20.40;58.80;;;;;;5080526;28;1894;-67
2021/10/31 13:46:01;;;;;;;;;;;20.40;58.20;;;;;;5091112;28;1777;-70
2021/10/31 13:48:30;;;;;;;;;;;20.40;58.20;;;;;;5078049;28;1259;-69
2021/10/31 13:50:56;;;;;;;;;;;20.40;58.20;;;;;;5076461;28;1276;-68
2021/10/31 13:53:21;;;;;;;;;;;20.40;58.30;;;;;;5066693;28;1231;-68
2021/10/31 13:55:48;;;;;;;;;;;20.40;58.30;;;;;;5088613;28;1224;-69
2021/10/31 13:58:14;;;;;;;;;;;20.40;58.30;;;;;;5072051;28;1702;-68
2021/10/31 14:00:42;;;;;;;;;;;20.40;58.30;;;;;;5069945;28;1400;-67
2021/10/31 14:03:14;;;;;;;;;;;20.40;58.30;;;;;;5088488;28;1910;-68
2021/10/31 14:05:44;;;;;;;;;;;20.40;58.30;;;;;;5075441;28;1317;-67
2021/10/31 14:08:09;;;;;;;;;;;20.40;58.40;;;;;;5074902;28;1323;-68
2021/10/31 14:10:39;;;;;;;;;;;20.40;58.40;;;;;;5075094;28;1269;-68
2021/10/31 14:13:05;;;;;;;;;;;20.40;58.40;;;;;;5074312;28;1280;-68
2021/10/31 14:15:31;;;;;;;;;;;20.40;58.40;;;;;;5062722;28;1720;-69
2021/10/31 14:17:57;;;;;;;;;;;20.40;58.40;;;;;;5058590;28;1367;-69
2021/10/31 14:20:22;;;;;;;;;;;20.40;58.50;;;;;;5081999;28;1305;-67
2021/10/31 14:22:49;;;;;;;;;;;20.40;58.50;;;;;;5099179;28;1910;-69
2021/10/31 14:25:17;;;;;;;;;;;20.40;58.50;;;;;;5093268;28;1251;-70
2021/10/31 14:27:46;;;;;;;;;;;20.40;58.50;;;;;;5069351;28;1199;-67
2021/10/31 14:30:11;;;;;;;;;;;20.40;58.50;;;;;;5083127;28;1239;-67
2021/10/31 14:32:44;;;;;;;;;;;20.40;58.50;;;;;;5092306;28;1282;-67